Time;durP1;ratioP1;P1;durP2;ratioP2;P2;SDS_P1;SDS_P2;PMS_P1;PMS_P2;Temp;Humidity;BMP_temperature;BMP_pressure;BME280_temperature;BME280_humidity;BME280_pressure;Samples;Min_cycle;Max_cycle;Signal;HPM_P1;HPM_P2
2022/06/20 00:01:35;;;;;;;6.72;3.50;;;22.70;92.60;;;;;;5087570;28;20032;-76
2022/06/20 00:04:01;;;;;;;6.97;3.45;;;22.60;92.70;;;;;;5090264;28;20028;-76
2022/06/20 00:06:27;;;;;;;5.80;3.67;;;22.60;92.70;;;;;;5085134;28;20031;-76
2022/06/20 00:08:53;;;;;;;4.95;3.50;;;22.60;92.80;;;;;;5089905;28;20040;-76
2022/06/20 00:11:23;;;;;;;8.15;3.05;;;22.60;92.70;;;;;;5092040;28;20096;-76
2022/06/20 00:13:53;;;;;;;4.88;3.05;;;22.70;92.80;;;;;;5082887;28;20379;-76
2022/06/20 00:16:19;;;;;;;5.03;3.13;;;22.50;92.90;;;;;;5091069;28;20181;-76
2022/06/20 00:18:46;;;;;;;5.45;3.40;;;22.50;93.10;;;;;;5089821;28;20028;-76
2022/06/20 00:21:16;;;;;;;5.88;3.15;;;22.30;93.30;;;;;;5087780;28;20024;-76
2022/06/20 00:23:42;;;;;;;8.00;3.47;;;22.20;93.50;;;;;;5089238;28;20028;-76
2022/06/20 00:26:08;;;;;;;6.97;3.47;;;22.20;93.60;;;;;;5088992;28;20051;-76
2022/06/20 00:28:34;;;;;;;7.43;3.25;;;22.30;93.60;;;;;;5091733;28;20055;-76
2022/06/20 00:31:01;;;;;;;5.63;3.65;;;22.20;93.60;;;;;;5087149;28;20024;-76
2022/06/20 00:33:27;;;;;;;6.90;3.20;;;22.10;93.70;;;;;;5089991;28;20027;-76
2022/06/20 00:35:53;;;;;;;8.32;3.63;;;22.00;93.80;;;;;;5087187;28;20024;-76
2022/06/20 00:38:21;;;;;;;9.13;3.60;;;22.00;94.00;;;;;;5081859;28;20509;-76
2022/06/20 00:40:52;;;;;;;5.53;3.20;;;21.90;94.10;;;;;;5082628;28;20028;-76
2022/06/20 00:43:24;;;;;;;7.35;3.63;;;21.90;94.20;;;;;;5079568;28;20039;-76
2022/06/20 00:45:52;;;;;;;8.77;3.80;;;21.70;94.40;;;;;;5091411;28;20028;-76
2022/06/20 00:48:48;;;;;;;8.23;3.60;;;21.70;94.40;;;;;;5090460;28;20040;-76
2022/06/20 00:51:34;;;;;;;8.30;3.85;;;21.70;94.60;;;;;;5091658;28;20032;-76
2022/06/20 00:54:23;;;;;;;9.60;3.60;;;21.80;94.60;;;;;;5097275;28;20048;-76
2022/06/20 00:56:55;;;;;;;10.50;3.78;;;21.80;94.70;;;;;;5089737;28;20445;-76
2022/06/20 00:59:43;;;;;;;7.22;3.75;;;21.80;94.60;;;;;;5091436;28;20020;-76
2022/06/20 01:02:11;;;;;;;8.50;3.50;;;21.80;94.60;;;;;;5093210;28;20032;-76
2022/06/20 01:04:51;;;;;;;8.25;3.83;;;21.70;94.80;;;;;;5095619;28;20032;-76
2022/06/20 01:07:24;;;;;;;6.90;3.53;;;21.60;94.80;;;;;;5093113;28;20047;-76
2022/06/20 01:09:54;;;;;;;5.93;3.20;;;21.60;94.90;;;;;;5093032;28;20028;-76
2022/06/20 01:12:21;;;;;;;5.88;3.08;;;21.70;94.90;;;;;;5092660;28;20042;-76
2022/06/20 01:14:47;;;;;;;5.97;3.30;;;21.70;94.70;;;;;;5095266;28;20543;-76
2022/06/20 01:17:35;;;;;;;6.60;3.22;;;21.70;94.90;;;;;;5093385;28;20028;-76
2022/06/20 01:20:29;;;;;;;9.00;2.67;;;21.50;95.10;;;;;;5092580;28;20028;-76
2022/06/20 01:23:10;;;;;;;7.18;3.28;;;21.50;95.10;;;;;;5089758;28;20036;-75
2022/06/20 01:25:44;;;;;;;4.40;3.03;;;21.60;95.00;;;;;;5092957;28;20481;-75
2022/06/20 01:28:15;;;;;;;5.57;3.50;;;21.50;95.10;;;;;;5093276;28;20048;-76
2022/06/20 01:30:44;;;;;;;5.93;3.90;;;21.40;95.20;;;;;;5085277;28;20024;-76
2022/06/20 01:33:12;;;;;;;5.15;3.67;;;21.50;95.10;;;;;;5089912;28;20032;-75
2022/06/20 01:38:27;;;;;;;8.25;4.10;;;21.50;95.10;;;;;;5087355;28;20398;-76
2022/06/20 01:43:37;;;;;;;;;;;21.50;95.20;;;;;;5093420;28;20394;-76
2022/06/20 01:46:09;;;;;;;6.95;3.22;;;21.40;95.40;;;;;;5090052;28;19912;-75
2022/06/20 01:48:44;;;;;;;5.47;3.17;;;21.20;95.70;;;;;;5093540;28;20035;-76
2022/06/20 01:51:20;;;;;;;8.63;4.18;;;21.20;95.80;;;;;;5090779;28;20039;-76
2022/06/20 01:53:47;;;;;;;9.75;3.90;;;21.20;95.90;;;;;;5091949;28;20505;-76
2022/06/20 01:56:13;;;;;;;6.97;3.78;;;21.10;95.80;;;;;;5092156;28;20032;-76
2022/06/20 01:58:49;;;;;;;6.50;3.90;;;21.00;96.00;;;;;;5091207;28;20039;-75
2022/06/20 02:01:15;;;;;;;8.27;3.65;;;21.00;96.20;;;;;;5085124;28;20509;-76
2022/06/20 02:03:44;;;;;;;6.75;3.60;;;20.90;96.30;;;;;;5089278;28;20032;-76
2022/06/20 02:06:13;;;;;;;6.18;3.38;;;21.00;96.40;;;;;;5092923;28;20109;-76
2022/06/20 02:08:41;;;;;;;7.00;4.03;;;20.90;96.50;;;;;;5094127;28;20378;-76
2022/06/20 02:11:12;;;;;;;6.22;4.00;;;21.00;96.50;;;;;;5089433;28;20035;-76
2022/06/20 02:13:48;;;;;;;6.55;3.83;;;20.90;96.50;;;;;;5094172;28;20036;-76
2022/06/20 02:16:18;;;;;;;9.82;4.38;;;20.80;96.70;;;;;;5092255;28;20032;-76
2022/06/20 02:18:46;;;;;;;9.40;3.88;;;20.70;96.90;;;;;;5087187;28;20024;-76
2022/06/20 02:21:26;;;;;;;6.63;4.00;;;20.80;96.90;;;;;;5084627;28;20103;-76
2022/06/20 02:23:57;;;;;;;6.05;3.45;;;20.80;96.90;;;;;;5091659;28;20031;-76
2022/06/20 02:26:23;;;;;;;5.45;3.50;;;20.80;96.90;;;;;;5089383;28;20105;-76
2022/06/20 02:29:32;;;;;;;7.20;4.25;;;20.80;96.90;;;;;;5091504;28;20027;-76
2022/06/20 02:32:22;;;;;;;12.07;3.55;;;20.80;96.90;;;;;;5083385;28;20491;-76
2022/06/20 02:34:48;;;;;;;8.38;3.95;;;20.70;97.10;;;;;;5091874;28;20028;-76
2022/06/20 02:37:34;;;;;;;5.32;3.65;;;20.60;97.20;;;;;;5085979;28;20382;-76
2022/06/20 02:40:03;;;;;;;8.88;3.85;;;20.60;97.30;;;;;;5092617;28;20028;-76
2022/06/20 02:42:45;;;;;;;8.65;3.90;;;20.60;97.30;;;;;;5088447;28;20028;-76
2022/06/20 02:45:12;;;;;;;6.43;3.63;;;20.60;97.30;;;;;;5093548;28;20035;-76
2022/06/20 02:47:44;;;;;;;8.50;3.95;;;20.50;97.50;;;;;;5084208;28;20520;-76
2022/06/20 02:50:12;;;;;;;6.55;3.85;;;20.60;97.50;;;;;;5084809;28;20052;-76
2022/06/20 02:53:04;;;;;;;6.78;4.20;;;20.50;97.50;;;;;;5091125;28;20535;-76
2022/06/20 02:55:32;;;;;;;6.13;4.45;;;20.40;97.60;;;;;;5089700;28;20055;-76
2022/06/20 02:58:03;;;;;;;6.40;3.95;;;20.40;97.90;;;;;;5086063;28;20119;-75
2022/06/20 03:00:39;;;;;;;6.88;4.13;;;20.30;97.90;;;;;;5089495;28;20375;-75
2022/06/20 03:03:10;;;;;;;13.32;4.28;;;20.40;98.00;;;;;;5082811;28;20032;-75
2022/06/20 03:05:38;;;;;;;8.82;4.25;;;20.40;98.10;;;;;;5083524;28;20170;-75
2022/06/20 03:08:04;;;;;;;6.13;3.22;;;20.40;98.00;;;;;;5089417;28;20537;-74
2022/06/20 03:10:42;;;;;;;7.40;4.20;;;20.40;98.00;;;;;;5082792;28;20036;-75
2022/06/20 03:13:09;;;;;;;11.50;3.97;;;20.40;98.00;;;;;;5086297;28;20493;-75
2022/06/20 03:15:36;;;;;;;8.50;4.28;;;20.40;97.90;;;;;;5085057;28;20032;-75
2022/06/20 03:18:05;;;;;;;7.47;4.68;;;20.40;98.00;;;;;;5087397;28;20028;-74
2022/06/20 03:20:30;;;;;;;7.15;4.50;;;20.50;98.00;;;;;;5107742;28;20062;-75
2022/06/20 03:23:09;;;;;;;9.13;3.78;;;20.40;98.00;;;;;;5083470;28;20051;-75
2022/06/20 03:25:37;;;;;;;6.80;3.30;;;20.40;98.10;;;;;;5082714;28;20058;-74
2022/06/20 03:28:04;;;;;;;8.55;3.80;;;20.40;98.00;;;;;;5081221;28;20052;-75
2022/06/20 03:30:33;;;;;;;8.20;4.10;;;20.40;98.10;;;;;;5085864;28;20081;-75
2022/06/20 03:33:01;;;;;;;7.15;3.80;;;20.30;98.10;;;;;;5086463;28;20035;-75
2022/06/20 03:35:30;;;;;;;6.90;3.83;;;20.30;98.20;;;;;;5084405;28;20027;-75
2022/06/20 03:38:01;;;;;;;7.20;4.10;;;20.40;98.10;;;;;;5086626;28;20051;-75
2022/06/20 03:40:28;;;;;;;6.57;3.55;;;20.30;98.10;;;;;;5085898;28;20505;-75
2022/06/20 03:42:56;;;;;;;7.60;3.78;;;20.30;98.10;;;;;;5080741;28;20043;-75
2022/06/20 03:45:27;;;;;;;8.70;4.68;;;20.40;98.10;;;;;;5078109;28;20081;-75
2022/06/20 03:47:59;;;;;;;5.38;3.50;;;20.40;98.10;;;;;;5085358;28;20040;-75
2022/06/20 03:50:32;;;;;;;8.60;4.18;;;20.30;98.10;;;;;;5084730;28;20024;-75
2022/06/20 03:53:14;;;;;;;7.70;4.10;;;20.30;98.10;;;;;;5084578;28;20466;-75
2022/06/20 03:56:05;;;;;;;5.65;3.83;;;20.40;98.20;;;;;;5087249;28;20077;-75
2022/06/20 03:58:31;;;;;;;6.50;3.83;;;20.40;98.10;;;;;;5086791;28;20030;-75
2022/06/20 04:01:03;;;;;;;8.88;4.00;;;20.30;98.30;;;;;;5082956;28;20385;-75
2022/06/20 04:03:38;;;;;;;13.30;4.20;;;20.20;98.30;;;;;;5082852;28;20020;-75
2022/06/20 04:06:36;;;;;;;10.27;4.15;;;20.30;98.50;;;;;;5084350;28;20039;-75
2022/06/20 04:11:56;;;;;;;6.63;3.47;;;20.20;98.70;;;;;;5080027;28;20071;-74
2022/06/20 04:14:26;;;;;;;6.18;4.20;;;20.20;98.80;;;;;;5071226;28;20043;-75
2022/06/20 04:19:59;;;;;;;6.60;3.65;;;20.30;98.70;;;;;;5078432;28;20089;-75
2022/06/20 04:22:30;;;;;;;8.18;4.07;;;20.40;98.60;;;;;;5079082;28;20068;-75
2022/06/20 04:25:38;;;;;;;11.07;4.63;;;20.40;98.60;;;;;;5086625;28;20028;-75
2022/06/20 04:28:23;;;;;;;7.50;4.10;;;20.30;99.00;;;;;;5082185;28;20044;-75
2022/06/20 04:30:53;;;;;;;5.68;3.45;;;20.20;99.20;;;;;;5086010;28;20069;-75
2022/06/20 04:33:42;;;;;;;7.47;3.88;;;20.40;98.70;;;;;;5078812;28;20035;-75
2022/06/20 04:36:32;;;;;;;6.93;3.88;;;20.40;98.70;;;;;;5080634;28;20039;-75
2022/06/20 04:39:20;;;;;;;7.80;3.53;;;20.40;98.90;;;;;;5084430;28;20062;-75
2022/06/20 04:42:06;;;;;;;10.02;3.97;;;20.40;98.90;;;;;;5085827;28;20059;-74
2022/06/20 04:44:43;;;;;;;9.63;4.20;;;20.60;98.60;;;;;;5087603;28;20036;-72
2022/06/20 04:47:27;;;;;;;5.82;3.45;;;20.60;98.60;;;;;;5078545;28;20040;-73
2022/06/20 04:49:53;;;;;;;7.90;4.25;;;20.60;98.90;;;;;;5081598;28;20093;-73
2022/06/20 04:52:24;;;;;;;7.03;4.05;;;20.40;99.30;;;;;;5070977;28;20036;-73
2022/06/20 04:54:50;;;;;;;8.40;3.60;;;20.40;99.10;;;;;;5082343;28;20024;-73
2022/06/20 04:57:16;;;;;;;6.32;3.78;;;20.30;99.50;;;;;;5084493;28;20097;-73
2022/06/20 04:59:43;;;;;;;9.02;3.83;;;20.20;99.90;;;;;;5077759;28;20050;-75
2022/06/20 05:02:20;;;;;;;7.78;3.63;;;20.20;99.90;;;;;;5077835;28;20040;-72
2022/06/20 05:04:49;;;;;;;7.75;4.07;;;20.20;99.90;;;;;;5080025;28;20028;-73
2022/06/20 05:07:29;;;;;;;7.72;4.20;;;20.40;99.80;;;;;;5078996;28;20032;-75
2022/06/20 05:10:30;;;;;;;6.07;4.22;;;20.50;99.40;;;;;;5076816;28;20390;-75
2022/06/20 05:13:01;;;;;;;10.15;3.83;;;20.60;99.50;;;;;;5072330;28;20039;-76
2022/06/20 05:15:42;;;;;;;7.50;4.32;;;20.70;99.20;;;;;;5082658;28;20111;-76
2022/06/20 05:18:43;;;;;;;8.88;3.80;;;20.80;98.90;;;;;;5078862;28;20035;-75
2022/06/20 05:21:28;;;;;;;6.38;3.75;;;20.70;99.50;;;;;;5010207;28;20044;-75
2022/06/20 05:24:10;;;;;;;5.30;3.88;;;20.80;99.50;;;;;;5079081;28;20043;-73
2022/06/20 05:26:42;;;;;;;7.10;4.07;;;20.80;99.30;;;;;;5079266;28;20695;-75
2022/06/20 05:29:29;;;;;;;6.75;3.60;;;20.80;99.60;;;;;;5072802;28;20031;-75
2022/06/20 05:31:57;;;;;;;7.75;3.55;;;20.80;99.70;;;;;;5087355;28;20109;-75
2022/06/20 05:34:52;;;;;;;9.15;4.47;;;20.90;99.70;;;;;;5080225;28;20032;-73
2022/06/20 05:37:46;;;;;;;6.25;4.30;;;20.80;99.80;;;;;;5076493;28;20032;-74
2022/06/20 05:40:22;;;;;;;6.70;3.88;;;20.90;99.90;;;;;;5083256;28;20077;-75
2022/06/20 05:42:47;;;;;;;6.00;3.60;;;20.90;99.90;;;;;;5085670;28;20043;-74
2022/06/20 05:45:20;;;;;;;6.32;4.03;;;21.00;99.90;;;;;;5083940;28;20122;-75
2022/06/20 05:47:50;;;;;;;9.82;4.95;;;21.10;99.90;;;;;;5086956;28;20613;-75
2022/06/20 05:50:32;;;;;;;7.20;3.60;;;21.20;99.90;;;;;;5106071;28;20038;-75
2022/06/20 05:53:00;;;;;;;6.63;4.38;;;21.30;99.90;;;;;;5092483;28;20453;-76
2022/06/20 05:55:33;;;;;;;8.02;4.70;;;21.50;99.30;;;;;;5088792;28;20087;-75
2022/06/20 05:58:00;;;;;;;6.30;3.92;;;21.50;99.80;;;;;;5086448;28;20119;-75
2022/06/20 06:00:30;;;;;;;6.47;4.28;;;21.60;99.80;;;;;;5083931;28;20031;-75
2022/06/20 06:03:09;;;;;;;8.13;4.25;;;21.70;99.50;;;;;;5086615;28;20020;-75
2022/06/20 06:05:45;;;;;;;8.65;4.07;;;21.80;99.40;;;;;;5086222;28;20047;-75
2022/06/20 06:08:50;;;;;;;6.90;4.22;;;21.90;99.00;;;;;;5084079;28;20081;-75
2022/06/20 06:11:28;;;;;;;9.15;4.20;;;22.10;99.20;;;;;;5070819;28;20105;-75
2022/06/20 06:14:15;;;;;;;6.78;4.32;;;22.20;99.30;;;;;;5082381;28;20646;-75
2022/06/20 06:17:11;;;;;;;6.40;4.50;;;22.30;98.20;;;;;;5079186;28;20056;-75
2022/06/20 06:19:51;;;;;;;6.07;4.57;;;22.40;97.90;;;;;;5079338;28;20206;-75
2022/06/20 06:22:25;;;;;;;9.48;4.75;;;22.40;97.40;;;;;;5085755;28;20052;-74
2022/06/20 06:24:53;;;;;;;;;;;22.30;97.00;;;;;;5086574;28;20032;-75
2022/06/20 06:27:23;;;;;;;9.48;4.75;;;22.40;97.20;;;;;;5085263;28;20053;-76
2022/06/20 06:30:03;;;;;;;7.85;4.68;;;22.50;97.30;;;;;;5084747;28;20032;-77
2022/06/20 06:32:41;;;;;;;22.65;5.78;;;22.50;97.20;;;;;;5084691;28;20110;-75
2022/06/20 06:35:06;;;;;;;34.53;6.32;;;22.60;97.60;;;;;;5076888;28;20043;-74
2022/06/20 06:37:38;;;;;;;10.68;5.05;;;22.70;97.70;;;;;;5084908;28;20589;-75
2022/06/20 06:40:25;;;;;;;10.55;4.78;;;22.80;97.60;;;;;;5083315;28;20378;-74
2022/06/20 06:42:55;;;;;;;7.00;5.07;;;22.80;97.40;;;;;;5085117;28;20038;-76
2022/06/20 06:45:26;;;;;;;10.27;4.65;;;22.90;97.20;;;;;;5076336;28;20024;-75
2022/06/20 06:47:58;;;;;;;10.77;5.75;;;22.90;97.20;;;;;;5082766;28;20082;-75
2022/06/20 06:50:31;;;;;;;8.60;4.75;;;23.00;97.50;;;;;;5082610;28;20043;-76
2022/06/20 06:53:11;;;;;;;6.75;5.20;;;23.10;96.80;;;;;;5085921;28;20043;-75
2022/06/20 06:55:41;;;;;;;9.95;5.15;;;23.20;96.20;;;;;;5084141;28;20416;-75
2022/06/20 06:58:10;;;;;;;8.60;4.80;;;23.30;95.70;;;;;;5084812;28;20500;-75
2022/06/20 07:00:42;;;;;;;10.75;5.28;;;23.40;95.40;;;;;;5085332;28;20103;-76
2022/06/20 07:03:26;;;;;;;15.13;4.37;;;23.50;95.30;;;;;;5085548;28;20115;-76
2022/06/20 07:05:59;;;;;;;9.25;5.22;;;23.80;95.50;;;;;;5079503;28;20039;-76
2022/06/20 07:08:30;;;;;;;12.35;5.50;;;24.00;95.70;;;;;;5078911;28;20044;-76
2022/06/20 07:11:08;;;;;;;8.32;5.20;;;24.30;95.60;;;;;;5082172;28;20130;-76
2022/06/20 07:13:49;;;;;;;11.43;5.03;;;24.60;95.10;;;;;;5083318;28;20058;-74
2022/06/20 07:16:33;;;;;;;6.63;4.68;;;24.80;94.80;;;;;;5078771;28;20470;-75
2022/06/20 07:19:00;;;;;;;6.43;4.43;;;24.90;95.20;;;;;;5082734;28;20024;-75
2022/06/20 07:21:28;;;;;;;6.53;4.60;;;25.10;94.30;;;;;;5084676;28;20043;-74
2022/06/20 07:24:01;;;;;;;7.80;4.45;;;25.30;93.30;;;;;;5083238;28;20578;-74
2022/06/20 07:26:34;;;;;;;10.38;5.70;;;25.50;92.80;;;;;;5082884;28;20035;-75
2022/06/20 07:29:23;;;;;;;9.60;5.40;;;25.60;92.60;;;;;;5083152;28;20036;-75
2022/06/20 07:32:24;;;;;;;7.65;4.95;;;26.00;92.30;;;;;;5079067;28;20543;-75
2022/06/20 07:34:58;;;;;;;19.27;5.40;;;26.70;92.10;;;;;;5077309;28;20114;-76
2022/06/20 07:37:30;;;;;;;7.53;4.25;;;27.50;91.60;;;;;;5084369;28;20085;-76
2022/06/20 07:40:04;;;;;;;7.72;4.57;;;28.10;91.20;;;;;;5085084;28;20043;-76
2022/06/20 07:42:38;;;;;;;8.13;4.72;;;28.40;89.20;;;;;;5075718;28;20024;-77
2022/06/20 07:45:13;;;;;;;6.60;4.20;;;28.70;89.80;;;;;;5085290;28;20047;-73
2022/06/20 07:47:50;;;;;;;6.93;4.40;;;28.40;89.00;;;;;;5075366;28;20093;-75
2022/06/20 07:50:22;;;;;;;10.55;4.13;;;28.40;88.80;;;;;;5084308;28;20426;-75
2022/06/20 07:52:52;;;;;;;10.60;5.03;;;28.30;89.10;;;;;;5083691;28;20670;-75
2022/06/20 07:55:23;;;;;;;11.00;4.88;;;27.70;90.60;;;;;;5083205;28;20024;-75
2022/06/20 07:57:56;;;;;;;13.23;4.85;;;27.60;90.80;;;;;;5082032;28;20046;-75
2022/06/20 08:00:27;;;;;;;9.80;4.95;;;27.80;91.10;;;;;;5078560;28;20035;-75
2022/06/20 08:02:58;;;;;;;8.02;4.97;;;27.70;90.80;;;;;;5084581;28;20043;-75
2022/06/20 08:05:37;;;;;;;7.65;4.40;;;27.90;90.70;;;;;;5084464;28;20032;-75
2022/06/20 08:08:16;;;;;;;7.78;4.60;;;28.20;90.40;;;;;;5084626;28;20105;-75
2022/06/20 08:10:48;;;;;;;7.00;4.50;;;28.20;90.20;;;;;;5082126;28;20629;-74
2022/06/20 08:13:25;;;;;;;9.98;4.50;;;27.90;89.90;;;;;;5084563;28;20067;-75
2022/06/20 08:16:14;;;;;;;5.70;3.95;;;27.90;90.00;;;;;;5081408;28;20038;-75
2022/06/20 08:18:40;;;;;;;7.03;4.30;;;28.10;90.40;;;;;;5084387;28;20028;-75
2022/06/20 08:21:23;;;;;;;8.07;4.53;;;28.40;90.30;;;;;;5080993;28;20028;-76
2022/06/20 08:24:02;;;;;;;10.90;4.68;;;28.40;89.50;;;;;;5083467;28;20032;-75
2022/06/20 08:26:47;;;;;;;11.52;4.55;;;28.40;89.10;;;;;;5082668;28;20039;-75
2022/06/20 08:29:51;;;;;;;6.80;4.57;;;28.20;90.20;;;;;;5081860;28;20056;-75
2022/06/20 08:32:33;;;;;;;9.13;4.55;;;28.10;91.00;;;;;;5047563;28;20129;-75
2022/06/20 08:35:19;;;;;;;10.43;5.28;;;28.00;90.60;;;;;;5076346;28;20024;-75
2022/06/20 08:37:58;;;;;;;7.47;3.85;;;27.90;90.30;;;;;;5083494;28;20529;-75
2022/06/20 08:40:53;;;;;;;10.13;4.88;;;28.10;90.70;;;;;;5081567;28;20424;-75
2022/06/20 08:43:27;;;;;;;7.28;4.78;;;28.60;90.50;;;;;;5082986;28;20023;-75
2022/06/20 08:46:00;;;;;;;8.98;4.53;;;28.40;88.90;;;;;;5082493;28;20226;-74
2022/06/20 08:49:00;;;;;;;11.35;4.68;;;28.20;90.20;;;;;;5083682;28;20038;-75
2022/06/20 08:52:12;;;;;;;7.32;4.80;;;28.10;89.10;;;;;;5080381;28;20059;-76
2022/06/20 08:54:46;;;;;;;10.07;5.32;;;28.30;90.30;;;;;;5058297;28;20048;-75
2022/06/20 08:57:19;;;;;;;10.00;4.63;;;28.70;90.30;;;;;;5083536;28;21965;-75
2022/06/20 09:00:05;;;;;;;5.65;4.03;;;28.50;89.20;;;;;;5083574;28;20024;-75
2022/06/20 09:02:37;;;;;;;8.32;4.20;;;28.70;90.30;;;;;;5083382;28;20028;-75
2022/06/20 09:05:24;;;;;;;8.25;4.70;;;28.40;88.60;;;;;;5084151;28;20032;-75
2022/06/20 09:08:24;;;;;;;10.55;3.60;;;28.50;90.70;;;;;;5072103;28;20737;-75
2022/06/20 09:11:18;;;;;;;7.07;3.92;;;28.70;89.00;;;;;;5084320;28;20032;-76
2022/06/20 09:14:09;;;;;;;8.02;3.55;;;28.70;87.40;;;;;;5087390;28;20610;-76
2022/06/20 09:16:55;;;;;;;6.07;3.42;;;28.70;88.20;;;;;;5087013;28;20381;-75
2022/06/20 09:19:56;;;;;;;9.40;4.13;;;29.10;88.10;;;;;;5085616;28;20085;-76
2022/06/20 09:22:42;;;;;;;13.70;4.45;;;28.90;86.30;;;;;;5082810;28;20051;-75
2022/06/20 09:25:49;;;;;;;9.77;4.07;;;29.20;87.00;;;;;;5081655;28;20048;-75
2022/06/20 09:28:36;;;;;;;8.07;4.10;;;28.90;86.00;;;;;;5073519;28;20135;-75
2022/06/20 09:31:12;;;;;;;7.35;4.05;;;28.80;85.60;;;;;;5086203;28;20039;-75
2022/06/20 09:33:44;;;;;;;8.75;3.25;;;29.00;88.10;;;;;;5086374;28;20596;-75
2022/06/20 09:36:48;;;;;;;8.10;3.63;;;29.20;87.00;;;;;;5087241;28;20020;-75
2022/06/20 09:39:13;;;;;;;7.67;4.23;;;29.00;85.50;;;;;;5086830;28;20028;-75
2022/06/20 09:41:58;;;;;;;14.82;3.90;;;29.10;86.60;;;;;;5083765;28;20277;-75
2022/06/20 09:44:49;;;;;;;5.80;3.85;;;29.30;85.80;;;;;;5085860;28;20093;-75
2022/06/20 09:47:29;;;;;;;5.97;4.07;;;29.40;86.70;;;;;;5084817;28;20032;-75
2022/06/20 09:50:10;;;;;;;6.63;3.75;;;29.40;86.70;;;;;;5085791;28;20032;-76
2022/06/20 09:53:10;;;;;;;7.53;4.18;;;29.80;87.30;;;;;;5086515;28;20089;-75
2022/06/20 09:55:55;;;;;;;9.20;4.18;;;29.60;86.10;;;;;;5085973;28;20039;-75
2022/06/20 09:58:45;;;;;;;8.07;4.10;;;29.90;86.70;;;;;;5084849;28;20068;-75
2022/06/20 10:01:18;;;;;;;7.13;3.78;;;29.80;86.20;;;;;;5083859;28;20039;-75
2022/06/20 10:04:32;;;;;;;11.10;3.85;;;29.90;87.40;;;;;;5079399;28;20098;-75
2022/06/20 10:07:07;;;;;;;13.60;5.30;;;29.90;85.80;;;;;;5030257;28;20076;-76
2022/06/20 10:09:47;;;;;;;13.10;4.40;;;30.10;86.70;;;;;;5086378;28;20812;-76
2022/06/20 10:12:13;;;;;;;9.73;4.63;;;30.00;86.40;;;;;;5086227;28;20032;-76
2022/06/20 10:14:38;;;;;;;6.15;4.03;;;29.90;86.10;;;;;;5084058;28;20458;-76
2022/06/20 10:17:17;;;;;;;7.22;3.50;;;30.40;87.50;;;;;;5085816;28;20036;-75
2022/06/20 10:19:46;;;;;;;9.50;4.30;;;30.40;87.20;;;;;;5083166;28;20517;-76
2022/06/20 10:22:22;;;;;;;10.98;5.00;;;30.60;86.40;;;;;;5086561;28;20028;-76
2022/06/20 10:25:09;;;;;;;7.00;3.83;;;30.70;86.80;;;;;;5088882;28;20032;-75
2022/06/20 10:27:44;;;;;;;9.75;4.82;;;30.70;83.90;;;;;;5088157;28;20036;-75
2022/06/20 10:30:15;;;;;;;7.93;4.20;;;30.60;86.30;;;;;;5089297;28;20035;-75
2022/06/20 10:32:57;;;;;;;10.32;4.55;;;30.80;84.70;;;;;;5080629;28;20074;-78
2022/06/20 10:35:25;;;;;;;9.63;5.03;;;31.10;87.00;;;;;;5088710;28;20039;-75
2022/06/20 10:38:12;;;;;;;15.68;5.05;;;31.30;85.50;;;;;;5079188;28;20032;-77
2022/06/20 10:41:06;;;;;;;9.20;4.93;;;31.30;85.50;;;;;;5088845;28;20028;-75
2022/06/20 10:43:50;;;;;;;8.23;4.80;;;31.40;83.90;;;;;;5089167;28;20035;-76
2022/06/20 10:46:18;;;;;;;12.25;5.20;;;31.50;85.20;;;;;;5091380;28;20031;-77
2022/06/20 10:49:00;;;;;;;7.30;4.55;;;31.60;83.60;;;;;;5092920;28;20585;-77
2022/06/20 10:51:47;;;;;;;13.10;5.45;;;31.50;83.30;;;;;;5089645;28;20031;-74
2022/06/20 10:54:18;;;;;;;8.10;5.20;;;31.50;82.50;;;;;;5087559;28;20063;-78
2022/06/20 10:57:11;;;;;;;8.38;5.25;;;31.70;84.80;;;;;;5088768;28;20490;-79
2022/06/20 10:59:57;;;;;;;15.50;5.57;;;31.60;83.60;;;;;;5059602;28;20060;-77
2022/06/20 11:02:41;;;;;;;10.50;5.28;;;31.80;83.60;;;;;;5084911;28;20525;-77
2022/06/20 11:05:09;;;;;;;;;;;31.90;83.90;;;;;;5082936;28;20088;-77
2022/06/20 11:07:42;;;;;;;12.65;5.50;;;31.90;83.60;;;;;;5083947;28;19989;-77
2022/06/20 11:10:29;;;;;;;10.95;5.35;;;31.90;84.00;;;;;;5084655;28;20032;-77
2022/06/20 11:13:16;;;;;;;8.30;5.72;;;32.00;84.00;;;;;;5085178;28;20069;-78
2022/06/20 11:15:45;;;;;;;14.93;5.63;;;32.00;83.00;;;;;;5081889;28;20040;-77
2022/06/20 11:18:23;;;;;;;9.05;4.90;;;31.90;83.30;;;;;;5083916;28;20032;-77
2022/06/20 11:21:03;;;;;;;14.23;5.60;;;31.90;81.90;;;;;;5081792;28;20024;-77
2022/06/20 11:23:45;;;;;;;8.15;5.03;;;32.10;81.90;;;;;;5080742;28;20028;-77
2022/06/20 11:26:30;;;;;;;9.35;5.88;;;32.20;83.50;;;;;;5084230;28;20028;-78
2022/06/20 11:28:56;;;;;;;16.77;5.40;;;32.30;83.00;;;;;;5080567;28;20044;-77
2022/06/20 11:31:22;;;;;;;9.40;5.85;;;32.50;83.50;;;;;;5081483;28;20474;-78
2022/06/20 11:34:04;;;;;;;11.13;6.15;;;32.50;83.70;;;;;;5081268;28;20032;-77
2022/06/20 11:36:35;;;;;;;12.15;5.70;;;32.50;83.30;;;;;;5084725;28;20518;-79
2022/06/20 11:39:08;;;;;;;11.13;5.18;;;32.40;81.80;;;;;;5082454;28;20059;-77
2022/06/20 11:41:45;;;;;;;20.48;5.88;;;32.60;81.90;;;;;;5076631;28;20035;-78
2022/06/20 11:44:22;;;;;;;12.85;6.10;;;32.30;80.30;;;;;;5083850;28;20028;-75
2022/06/20 11:47:10;;;;;;;8.52;4.78;;;32.30;81.30;;;;;;5084544;28;20511;-75
2022/06/20 11:50:13;;;;;;;13.00;4.80;;;32.60;81.50;;;;;;5083785;28;20100;-75
2022/06/20 11:53:16;;;;;;;11.23;5.82;;;32.50;80.80;;;;;;5081931;28;20508;-76
2022/06/20 11:56:03;;;;;;;13.00;5.43;;;32.60;81.30;;;;;;5084013;28;20510;-75
2022/06/20 11:59:21;;;;;;;11.38;5.15;;;32.80;81.40;;;;;;5078424;28;20490;-75
2022/06/20 12:02:12;;;;;;;12.32;5.05;;;32.80;81.50;;;;;;5070846;28;20081;-75
2022/06/20 12:04:53;;;;;;;12.70;5.70;;;32.80;82.40;;;;;;5083773;28;20056;-75
2022/06/20 12:07:33;;;;;;;14.07;5.20;;;33.00;81.40;;;;;;5081467;28;20047;-75
2022/06/20 12:10:27;;;;;;;11.57;5.55;;;32.60;80.40;;;;;;5080424;28;20121;-75
2022/06/20 12:13:11;;;;;;;12.98;6.25;;;32.80;80.80;;;;;;5080881;28;20043;-75
2022/06/20 12:15:55;;;;;;;11.77;5.80;;;32.80;80.80;;;;;;5080729;28;20028;-75
2022/06/20 12:24:32;;;;;;;7.68;5.15;;;33.30;80.50;;;;;;5084364;28;20047;-75
2022/06/20 12:26:57;;;;;;;12.23;5.65;;;33.30;80.90;;;;;;5082585;28;20143;-75
2022/06/20 12:29:28;;;;;;;9.07;5.50;;;32.90;81.30;;;;;;5082643;28;20115;-75
2022/06/20 12:32:00;;;;;;;13.25;5.22;;;33.00;80.70;;;;;;5074844;28;20122;-75
2022/06/20 12:34:42;;;;;;;12.43;5.35;;;33.20;81.80;;;;;;5084109;28;20032;-75
2022/06/20 12:37:26;;;;;;;12.75;5.30;;;33.40;80.60;;;;;;5083917;28;20492;-75
2022/06/20 12:40:15;;;;;;;11.43;5.53;;;33.40;81.60;;;;;;5084248;28;20067;-75
2022/06/20 12:42:48;;;;;;;11.60;5.80;;;33.20;80.90;;;;;;5084104;28;20028;-75
2022/06/20 12:45:32;;;;;;;9.65;4.97;;;33.40;81.00;;;;;;5084319;28;20035;-75
2022/06/20 12:48:22;;;;;;;15.20;6.38;;;33.40;82.30;;;;;;5087450;28;20047;-75
2022/06/20 12:50:54;;;;;;;8.75;5.00;;;33.60;82.50;;;;;;5088298;28;20492;-75
2022/06/20 12:53:28;;;;;;;10.27;5.20;;;33.50;80.50;;;;;;5087069;28;20059;-75
2022/06/20 12:56:03;;;;;;;11.32;5.65;;;33.30;80.40;;;;;;5088141;28;20032;-75
2022/06/20 12:58:34;;;;;;;16.13;5.55;;;33.40;81.30;;;;;;5088920;28;20028;-75
2022/06/20 13:01:43;;;;;;;11.80;5.82;;;33.30;80.80;;;;;;5088092;28;20034;-75
2022/06/20 13:04:30;;;;;;;9.40;4.90;;;33.60;80.30;;;;;;5054766;28;20467;-75
2022/06/20 13:07:23;;;;;;;14.32;5.40;;;33.90;80.00;;;;;;5081753;28;20055;-75
2022/06/20 13:10:11;;;;;;;13.38;4.55;;;33.50;80.00;;;;;;5087296;28;20081;-75
2022/06/20 13:12:58;;;;;;;9.25;5.72;;;33.50;80.00;;;;;;5091581;28;20032;-75
2022/06/20 13:15:50;;;;;;;13.18;5.35;;;33.90;80.20;;;;;;5086434;28;20036;-75
2022/06/20 13:18:15;;;;;;;13.25;4.97;;;33.90;80.00;;;;;;5077927;28;20169;-75
2022/06/20 13:21:02;;;;;;;16.42;4.85;;;33.60;79.30;;;;;;5085812;28;20111;-75
2022/06/20 13:23:56;;;;;;;9.13;5.57;;;33.60;79.10;;;;;;5081779;28;20297;-75
2022/06/20 13:26:39;;;;;;;15.95;5.47;;;33.60;79.50;;;;;;5080731;28;20490;-75
2022/06/20 13:29:24;;;;;;;10.52;5.05;;;33.80;79.50;;;;;;5087162;28;20043;-75
2022/06/20 13:32:03;;;;;;;13.45;4.88;;;33.60;78.30;;;;;;5085163;28;20029;-75
2022/06/20 13:34:47;;;;;;;12.13;4.88;;;33.90;78.70;;;;;;5083092;28;20032;-75
2022/06/20 13:37:28;;;;;;;12.50;5.20;;;34.00;77.80;;;;;;5084836;28;20039;-75
2022/06/20 13:40:40;;;;;;;13.23;5.47;;;33.80;77.90;;;;;;5081080;28;20040;-75
2022/06/20 13:43:43;;;;;;;13.82;4.15;;;33.60;77.90;;;;;;5087363;28;20082;-75
2022/06/20 13:46:28;;;;;;;15.82;5.40;;;33.60;77.50;;;;;;5087377;28;20089;-75
2022/06/20 13:49:19;;;;;;;17.13;5.60;;;33.70;77.10;;;;;;5086570;28;20391;-75
2022/06/20 13:52:06;;;;;;;10.95;5.53;;;33.80;76.80;;;;;;5086383;28;20089;-75
2022/06/20 13:55:08;;;;;;;17.10;5.35;;;33.80;76.80;;;;;;5086947;28;20090;-75
2022/06/20 13:57:44;;;;;;;11.18;4.50;;;33.70;76.50;;;;;;5071458;28;20059;-75
2022/06/20 14:00:16;;;;;;;18.35;5.22;;;33.80;76.30;;;;;;5087725;28;20035;-75